createdAt,value
2017-05-30T00:02:10.650Z,93.90
2017-05-30T00:04:39.638Z,94.00
2017-05-30T00:07:08.860Z,94.00
2017-05-30T00:09:37.839Z,94.00
2017-05-30T00:12:06.827Z,93.70
2017-05-30T00:14:35.819Z,93.70
2017-05-30T00:17:04.797Z,93.90
2017-05-30T00:19:33.778Z,94.00
2017-05-30T00:22:02.772Z,94.00
2017-05-30T00:24:31.746Z,94.00
2017-05-30T00:27:00.731Z,94.00
2017-05-30T00:29:29.741Z,94.00
2017-05-30T00:31:58.726Z,94.10
2017-05-30T00:34:27.710Z,94.10
2017-05-30T00:36:56.775Z,94.10
2017-05-30T00:39:25.759Z,93.90
2017-05-30T00:41:54.745Z,93.80
2017-05-30T00:44:23.742Z,93.80
2017-05-30T00:46:52.722Z,93.70
2017-05-30T00:49:21.706Z,93.80
2017-05-30T00:51:50.712Z,93.90
2017-05-30T00:54:19.688Z,93.80
2017-05-30T00:56:48.669Z,93.80
2017-05-30T00:59:17.670Z,94.00
2017-05-30T01:01:46.642Z,94.10
2017-05-30T01:04:16.890Z,94.00
2017-05-30T01:06:45.867Z,94.00
2017-05-30T01:09:14.858Z,94.10
2017-05-30T01:11:43.855Z,94.20
2017-05-30T01:14:12.832Z,94.10
2017-05-30T01:16:41.806Z,94.10
2017-05-30T01:19:10.805Z,94.10
2017-05-30T01:21:39.782Z,94.00
2017-05-30T01:24:08.759Z,93.90
2017-05-30T01:26:37.753Z,93.90
2017-05-30T01:29:06.720Z,93.80
2017-05-30T01:31:35.701Z,93.80
2017-05-30T01:34:04.709Z,93.50
2017-05-30T01:36:33.689Z,93.50
2017-05-30T01:39:02.485Z,93.30
2017-05-30T01:41:31.490Z,93.30
2017-05-30T01:44:00.476Z,93.30
2017-05-30T01:46:29.456Z,93.30
2017-05-30T01:48:58.466Z,93.50
2017-05-30T01:51:27.449Z,93.10
2017-05-30T01:53:56.437Z,92.90
2017-05-30T01:56:25.439Z,93.10
2017-05-30T01:58:54.418Z,92.90
2017-05-30T02:01:23.393Z,93.00
2017-05-30T02:03:52.401Z,92.70
2017-05-30T02:06:21.380Z,92.50
2017-05-30T02:08:50.368Z,92.30
2017-05-30T02:11:19.387Z,92.50
2017-05-30T02:13:48.361Z,92.30
2017-05-30T02:16:17.338Z,92.30
2017-05-30T02:18:46.390Z,92.20
2017-05-30T02:21:15.363Z,92.10
2017-05-30T02:23:44.346Z,92.00
2017-05-30T02:26:13.343Z,92.10
2017-05-30T02:28:42.331Z,92.10
2017-05-30T02:31:11.321Z,92.10
2017-05-30T02:33:40.313Z,92.20
2017-05-30T02:36:09.298Z,92.10
2017-05-30T02:38:38.273Z,92.10
2017-05-30T02:41:07.300Z,92.00
2017-05-30T02:43:36.286Z,92.10
2017-05-30T02:46:05.263Z,92.30
2017-05-30T02:48:34.267Z,92.80
2017-05-30T02:51:03.242Z,92.60
2017-05-30T02:53:32.222Z,92.50
2017-05-30T02:56:01.233Z,92.50
2017-05-30T02:58:30.210Z,92.50
2017-05-30T03:00:59.189Z,92.50
2017-05-30T03:03:28.200Z,92.50
2017-05-30T03:05:57.179Z,92.40
2017-05-30T03:08:26.163Z,92.40
2017-05-30T03:10:55.153Z,92.40
2017-05-30T03:13:24.133Z,92.50
2017-05-30T03:15:53.107Z,92.60
2017-05-30T03:18:22.108Z,92.60
2017-05-30T03:20:51.096Z,92.70
2017-05-30T03:23:20.075Z,92.70
2017-05-30T03:25:49.069Z,92.70
2017-05-30T03:28:18.063Z,92.90
2017-05-30T03:30:47.038Z,93.00
2017-05-30T03:33:16.033Z,93.10
2017-05-30T03:35:45.024Z,93.20
2017-05-30T03:38:14.005Z,93.10
2017-05-30T03:40:42.997Z,93.00
2017-05-30T03:43:11.977Z,92.90
2017-05-30T03:45:40.954Z,92.70
2017-05-30T03:48:09.957Z,92.70
2017-05-30T03:50:38.935Z,92.70
2017-05-30T03:53:08.485Z,92.60
2017-05-30T03:55:37.871Z,92.60
2017-05-30T03:58:06.866Z,92.60
2017-05-30T04:00:35.841Z,92.60
2017-05-30T04:03:04.882Z,92.60
2017-05-30T04:05:33.862Z,92.60
2017-05-30T04:08:02.846Z,92.40
2017-05-30T04:10:31.950Z,92.20
2017-05-30T04:13:00.922Z,92.30
2017-05-30T04:15:29.890Z,92.30
2017-05-30T04:17:59.113Z,92.20
2017-05-30T04:20:28.085Z,92.30
2017-05-30T04:22:57.078Z,92.10
2017-05-30T04:25:26.119Z,92.00
2017-05-30T04:27:55.096Z,91.50
2017-05-30T04:30:24.069Z,91.70
2017-05-30T04:32:53.258Z,91.50
2017-05-30T04:35:22.233Z,91.60
2017-05-30T04:37:51.203Z,91.40
2017-05-30T04:40:20.542Z,91.30
2017-05-30T04:42:49.558Z,91.20
2017-05-30T04:45:18.538Z,91.00
2017-05-30T04:47:47.544Z,91.00
2017-05-30T04:50:16.522Z,91.10
2017-05-30T04:52:45.503Z,91.20
2017-05-30T04:55:14.710Z,91.30
2017-05-30T04:57:43.686Z,91.40
2017-05-30T05:00:12.668Z,91.50
2017-05-30T05:02:41.922Z,91.30
2017-05-30T05:05:10.900Z,91.20
2017-05-30T05:07:39.882Z,90.80
2017-05-30T05:10:09.090Z,90.80
2017-05-30T05:12:38.065Z,90.80
2017-05-30T05:15:07.066Z,90.80
2017-05-30T05:17:36.062Z,90.90
2017-05-30T05:20:05.038Z,90.40
2017-05-30T05:22:34.014Z,90.20
2017-05-30T05:25:03.094Z,90.10
2017-05-30T05:27:32.075Z,90.10
2017-05-30T05:30:01.064Z,89.70
2017-05-30T05:32:30.160Z,89.30
2017-05-30T05:34:59.136Z,88.90
2017-05-30T05:37:28.110Z,88.60
2017-05-30T05:39:57.149Z,88.80
2017-05-30T05:42:26.115Z,89.20
2017-05-30T05:44:55.090Z,88.10
2017-05-30T05:47:24.243Z,87.70
2017-05-30T05:49:53.238Z,86.90
2017-05-30T05:52:22.227Z,87.30
2017-05-30T05:54:51.541Z,86.70
2017-05-30T05:57:20.552Z,87.10
2017-05-30T05:59:49.593Z,87.60
2017-05-30T06:02:18.578Z,87.50
2017-05-30T06:04:47.553Z,87.60
2017-05-30T06:07:16.537Z,86.40
2017-05-30T06:09:45.619Z,86.00
2017-05-30T06:12:14.589Z,85.50
2017-05-30T06:14:43.571Z,85.40
2017-05-30T06:17:12.597Z,83.80
2017-05-30T06:19:41.569Z,83.20
2017-05-30T06:22:10.554Z,83.00
2017-05-30T06:24:39.684Z,83.60
2017-05-30T06:27:08.657Z,83.50
2017-05-30T06:29:37.635Z,84.90
2017-05-30T06:32:06.645Z,84.70
2017-05-30T06:34:35.625Z,84.40
2017-05-30T06:37:04.607Z,83.80
2017-05-30T06:39:33.738Z,83.30
2017-05-30T06:42:02.712Z,82.30
2017-05-30T06:44:31.691Z,80.50
2017-05-30T06:47:00.713Z,80.90
2017-05-30T06:49:29.689Z,80.40
2017-05-30T06:51:58.673Z,80.30
2017-05-30T06:54:27.822Z,80.00
2017-05-30T06:56:56.817Z,80.60
2017-05-30T06:59:25.803Z,82.10
2017-05-30T07:01:54.823Z,82.10
2017-05-30T07:04:23.812Z,81.00
2017-05-30T07:06:52.821Z,82.00
2017-05-30T07:09:21.138Z,81.90
2017-05-30T07:11:50.121Z,81.40
2017-05-30T07:14:19.110Z,82.00
2017-05-30T07:16:48.261Z,82.70
2017-05-30T07:19:17.285Z,83.30
2017-05-30T07:21:46.297Z,84.60
2017-05-30T07:24:15.346Z,82.90
2017-05-30T07:26:44.338Z,83.90
2017-05-30T07:29:13.318Z,84.00
2017-05-30T07:31:42.466Z,85.20
2017-05-30T07:34:11.453Z,84.20
2017-05-30T07:36:40.459Z,84.00
2017-05-30T07:39:09.637Z,81.60
2017-05-30T07:41:38.625Z,80.30
2017-05-30T07:44:07.622Z,80.30
2017-05-30T07:46:36.824Z,80.50
2017-05-30T07:49:05.822Z,80.00
2017-05-30T07:51:34.791Z,82.20
2017-05-30T07:54:03.898Z,80.20
2017-05-30T07:56:32.870Z,79.40
2017-05-30T07:59:01.847Z,79.10
2017-05-30T08:01:30.882Z,78.10
2017-05-30T08:03:59.865Z,76.90
2017-05-30T08:06:28.845Z,78.50
2017-05-30T08:08:57.978Z,77.30
2017-05-30T08:11:26.954Z,78.70
2017-05-30T08:13:55.938Z,79.00
2017-05-30T08:16:25.097Z,77.10
2017-05-30T08:18:54.275Z,77.90
2017-05-30T08:21:23.267Z,79.10
2017-05-30T08:23:52.257Z,78.60
2017-05-30T08:26:21.233Z,77.10
2017-05-30T08:28:50.204Z,76.90
2017-05-30T08:31:19.194Z,78.20
2017-05-30T08:33:48.189Z,76.60
2017-05-30T08:36:17.179Z,78.30
2017-05-30T08:38:46.276Z,77.50
2017-05-30T08:41:15.262Z,75.60
2017-05-30T08:43:44.247Z,75.40
2017-05-30T08:46:13.453Z,77.00
2017-05-30T08:48:42.428Z,78.40
2017-05-30T08:51:11.403Z,78.30
2017-05-30T08:53:40.498Z,78.60
2017-05-30T08:56:09.487Z,81.60
2017-05-30T08:58:38.466Z,81.90
2017-05-30T09:01:07.474Z,83.30
2017-05-30T09:03:36.472Z,84.40
2017-05-30T09:06:05.461Z,84.60
2017-05-30T09:08:34.693Z,84.60
2017-05-30T09:11:03.672Z,83.90
2017-05-30T09:13:32.655Z,83.00
2017-05-30T09:20:41.846Z,79.00
2017-05-30T09:23:10.833Z,75.60
2017-05-30T09:25:39.809Z,76.50
2017-05-30T09:28:08.989Z,75.20
2017-05-30T09:30:37.960Z,74.20
2017-05-30T09:33:06.942Z,75.70
2017-05-30T09:35:35.947Z,74.70
2017-05-30T09:38:05.024Z,73.70
2017-05-30T09:40:33.992Z,73.40
2017-05-30T09:43:03.097Z,74.60
2017-05-30T09:45:32.066Z,76.70
2017-05-30T09:48:01.050Z,77.60
2017-05-30T09:50:30.144Z,78.20
2017-05-30T09:52:59.117Z,78.70
2017-05-30T09:55:28.099Z,75.80
2017-05-30T09:57:57.321Z,77.80
2017-05-30T10:03:20.009Z,75.00
2017-05-30T10:05:49.026Z,71.70
2017-05-30T10:08:18.015Z,72.40
2017-05-30T10:10:47.033Z,73.10
2017-05-30T10:13:16.024Z,77.40
2017-05-30T10:15:45.018Z,78.60
2017-05-30T10:18:14.162Z,76.60
2017-05-30T10:20:43.150Z,76.50
2017-05-30T10:23:12.138Z,75.40
2017-05-30T10:25:41.141Z,75.40
2017-05-30T10:28:10.148Z,74.50
2017-05-30T10:30:39.137Z,74.40
2017-05-30T10:33:08.276Z,73.30
2017-05-30T10:35:37.258Z,75.70
2017-05-30T10:38:07.182Z,80.10
2017-05-30T10:40:36.321Z,81.70
2017-05-30T10:43:05.298Z,83.00
2017-05-30T10:45:34.285Z,84.50
2017-05-30T10:48:03.336Z,83.00
2017-05-30T10:50:32.323Z,83.80
2017-05-30T10:53:01.297Z,83.00
2017-05-30T10:55:30.677Z,80.90
2017-05-30T10:57:59.666Z,82.20
2017-05-30T11:00:28.656Z,82.60
2017-05-30T11:02:57.749Z,79.30
2017-05-30T11:05:26.753Z,79.00
2017-05-30T11:07:55.744Z,80.40
2017-05-30T11:10:24.764Z,78.20
2017-05-30T11:12:53.760Z,77.50
2017-05-30T11:15:22.750Z,78.50
2017-05-30T11:17:51.792Z,81.20
2017-05-30T11:20:20.765Z,81.40
2017-05-30T11:22:49.754Z,81.50
2017-05-30T11:25:18.932Z,81.90
2017-05-30T11:27:47.941Z,80.00
2017-05-30T11:30:16.926Z,80.00
2017-05-30T11:32:46.073Z,82.00
2017-05-30T11:35:15.086Z,80.00
2017-05-30T11:37:44.073Z,79.50
2017-05-30T11:40:13.227Z,78.00
2017-05-30T11:42:42.225Z,77.70
2017-05-30T11:45:11.197Z,79.60
2017-05-30T11:47:40.202Z,80.60
2017-05-30T11:50:09.174Z,82.60
2017-05-30T11:52:38.148Z,83.10
2017-05-30T11:55:07.246Z,83.90
2017-05-30T11:57:36.241Z,84.10
2017-05-30T12:00:05.222Z,81.00
2017-05-30T12:02:34.370Z,78.90
2017-05-30T12:05:03.373Z,76.50
2017-05-30T12:07:32.363Z,78.00
2017-05-30T12:10:01.735Z,79.40
2017-05-30T12:12:30.725Z,79.30
2017-05-30T12:14:59.713Z,78.80
2017-05-30T12:17:28.869Z,79.20
2017-05-30T12:19:57.885Z,79.10
2017-05-30T12:22:26.874Z,81.20
2017-05-30T12:24:56.030Z,83.10
2017-05-30T12:27:25.035Z,86.20
2017-05-30T12:29:54.111Z,88.50
2017-05-30T12:32:23.230Z,88.70
2017-05-30T12:34:52.227Z,87.50
2017-05-30T12:37:21.338Z,87.50
2017-05-30T12:39:50.723Z,88.40
2017-05-30T12:42:28.976Z,89.60
2017-05-30T12:44:58.008Z,89.60
2017-05-30T12:47:26.985Z,90.20
2017-05-30T12:49:55.966Z,88.00
2017-05-30T12:52:25.068Z,89.40
2017-05-30T12:54:54.063Z,85.10
2017-05-30T12:57:23.074Z,87.00
2017-05-30T12:59:52.102Z,82.40
2017-05-30T13:02:21.099Z,83.00
2017-05-30T13:04:50.110Z,82.30
2017-05-30T13:07:19.152Z,80.10
2017-05-30T13:09:48.165Z,83.60
2017-05-30T13:12:17.145Z,81.50
2017-05-30T13:14:46.297Z,80.10
2017-05-30T13:17:15.319Z,80.30
2017-05-30T13:19:44.316Z,79.20
2017-05-30T13:22:13.358Z,78.60
2017-05-30T13:24:42.354Z,79.20
2017-05-30T13:27:11.349Z,80.20
2017-05-30T13:29:40.723Z,81.00
2017-05-30T13:32:09.718Z,81.00
2017-05-30T13:34:38.709Z,79.70
2017-05-30T13:37:07.848Z,78.40
2017-05-30T13:39:36.839Z,78.60
2017-05-30T13:42:05.831Z,73.00
2017-05-30T13:44:35.163Z,74.60
2017-05-30T13:47:04.177Z,73.50
2017-05-30T13:49:33.170Z,74.30
2017-05-30T13:52:02.311Z,72.10
2017-05-30T13:54:31.302Z,72.80
2017-05-30T13:57:00.276Z,70.00
2017-05-30T13:59:29.423Z,71.30
2017-05-30T14:01:58.209Z,71.50
2017-05-30T14:04:27.185Z,71.80
2017-05-30T14:06:56.295Z,71.70
2017-05-30T14:09:25.291Z,68.40
2017-05-30T14:11:54.271Z,69.20
2017-05-30T14:14:23.263Z,70.70
2017-05-30T14:16:52.251Z,71.50
2017-05-30T14:19:21.714Z,69.50
2017-05-30T14:21:50.681Z,69.30
2017-05-30T14:24:19.762Z,70.80
2017-05-30T14:26:48.998Z,69.80
2017-05-30T14:29:17.978Z,71.10
2017-05-30T14:31:46.967Z,69.40
2017-05-30T14:34:15.974Z,68.90
2017-05-30T14:36:44.949Z,69.20
2017-05-30T14:39:13.923Z,70.40
2017-05-30T14:41:43.080Z,70.80
2017-05-30T14:44:12.068Z,70.70
2017-05-30T14:46:41.041Z,70.60
2017-05-30T14:49:10.190Z,71.50
2017-05-30T14:51:39.179Z,71.90
2017-05-30T14:54:08.182Z,73.40
2017-05-30T14:56:37.209Z,70.60
2017-05-30T14:59:06.191Z,70.10
2017-05-30T15:01:35.171Z,69.90
2017-05-30T15:04:04.321Z,69.90
2017-05-30T15:06:33.300Z,70.50
2017-05-30T15:09:02.292Z,69.80
2017-05-30T15:11:31.393Z,69.40
2017-05-30T15:14:00.374Z,70.60
2017-05-30T15:16:29.530Z,70.20
2017-05-30T15:21:38.069Z,68.20
2017-05-30T15:24:07.058Z,69.30
2017-05-30T15:26:36.063Z,69.40
2017-05-30T15:29:05.218Z,68.00
2017-05-30T15:31:34.216Z,68.40
2017-05-30T15:34:03.199Z,68.00
2017-05-30T15:36:32.406Z,66.80
2017-05-30T15:39:01.397Z,67.90
2017-05-30T15:41:30.494Z,66.10
2017-05-30T15:43:59.529Z,66.40
2017-05-30T15:46:28.512Z,67.80
2017-05-30T15:48:57.509Z,68.00
2017-05-30T15:51:26.641Z,68.40
2017-05-30T15:53:55.636Z,69.50
2017-05-30T15:56:24.626Z,68.30
2017-05-30T15:58:53.791Z,68.60
2017-05-30T16:01:22.774Z,68.70
2017-05-30T16:03:51.792Z,68.00
2017-05-30T16:06:21.020Z,68.80
2017-05-30T16:08:50.009Z,68.20
2017-05-30T16:11:18.999Z,68.20
2017-05-30T16:13:47.989Z,67.70
2017-05-30T16:16:16.986Z,67.00
2017-05-30T16:18:45.981Z,67.40
2017-05-30T16:21:15.243Z,68.00
2017-05-30T16:23:44.246Z,68.60
2017-05-30T16:26:13.234Z,68.70
2017-05-30T16:28:42.518Z,68.10
2017-05-30T16:31:11.501Z,68.90
2017-05-30T16:33:40.518Z,67.40
2017-05-30T16:36:09.621Z,68.50
2017-05-30T16:38:38.604Z,69.70
2017-05-30T16:41:07.576Z,69.70
2017-05-30T16:43:36.574Z,69.60
2017-05-30T16:46:05.570Z,69.40
2017-05-30T16:48:34.571Z,69.80
2017-05-30T16:51:03.738Z,67.80
2017-05-30T16:53:32.743Z,68.80
2017-05-30T16:56:01.733Z,69.10
2017-05-30T16:58:30.773Z,70.30
2017-05-30T17:00:59.761Z,70.50
2017-05-30T17:03:28.752Z,70.00
2017-05-30T17:05:58.095Z,71.30
2017-05-30T17:08:26.941Z,71.00
2017-05-30T17:10:56.543Z,71.40
2017-05-30T17:13:25.682Z,71.00
2017-05-30T17:15:54.732Z,71.40
2017-05-30T17:18:23.727Z,71.30
2017-05-30T17:20:52.902Z,69.90
2017-05-30T17:23:21.891Z,69.00
2017-05-30T17:25:50.870Z,70.30
2017-05-30T17:28:20.064Z,70.60
2017-05-30T17:30:49.098Z,69.80
2017-05-30T17:33:18.094Z,69.90
2017-05-30T17:35:47.115Z,69.20
2017-05-30T17:38:16.089Z,69.60
2017-05-30T17:40:45.066Z,68.90
2017-05-30T17:43:16.484Z,70.10
2017-05-30T17:45:45.579Z,69.00
2017-05-30T17:48:14.611Z,69.60
2017-05-30T17:50:43.626Z,69.00
2017-05-30T17:53:12.623Z,69.20
2017-05-30T17:55:42.046Z,68.60
2017-05-30T17:58:11.037Z,68.90
2017-05-30T18:00:40.035Z,68.50
2017-05-30T18:03:09.233Z,69.50
2017-05-30T18:05:38.217Z,67.70
2017-05-30T18:08:07.205Z,68.40
2017-05-30T18:10:36.418Z,68.00
2017-05-30T18:13:05.395Z,67.30
2017-05-30T18:15:34.391Z,67.80
2017-05-30T18:18:03.493Z,68.00
2017-05-30T18:20:32.476Z,67.70
2017-05-30T18:23:01.453Z,68.40
2017-05-30T18:25:30.707Z,67.60
2017-05-30T18:27:59.687Z,68.60
2017-05-30T18:30:28.686Z,68.40
2017-05-30T18:32:57.848Z,68.50
2017-05-30T18:35:26.844Z,69.20
2017-05-30T18:37:55.834Z,69.50
2017-05-30T18:40:24.859Z,70.60
2017-05-30T18:42:53.856Z,70.20
2017-05-30T18:45:22.838Z,70.10
2017-05-30T18:47:52.308Z,70.50
2017-05-30T18:50:21.290Z,70.40
2017-05-30T18:52:50.285Z,72.10
2017-05-30T18:55:19.515Z,71.80
2017-05-30T18:57:48.533Z,72.30
2017-05-30T19:00:17.522Z,72.00
2017-05-30T19:02:46.678Z,72.20
2017-05-30T19:05:15.675Z,72.70
2017-05-30T19:07:44.702Z,72.30
2017-05-30T19:10:13.880Z,73.20
2017-05-30T19:12:42.862Z,73.30
2017-05-30T19:15:11.835Z,73.30
2017-05-30T19:17:40.861Z,73.50
2017-05-30T19:20:09.851Z,73.90
2017-05-30T19:22:38.888Z,74.20
2017-05-30T19:25:07.899Z,73.80
2017-05-30T19:27:36.886Z,73.30
2017-05-30T19:30:05.882Z,73.90
2017-05-30T19:32:35.107Z,73.30
2017-05-30T19:35:04.124Z,72.90
2017-05-30T19:37:33.125Z,72.70
2017-05-30T19:40:02.264Z,73.20
2017-05-30T19:42:31.270Z,73.10
2017-05-30T19:45:00.321Z,73.10
2017-05-30T19:47:29.469Z,74.00
2017-05-30T19:49:58.467Z,73.80
2017-05-30T19:52:27.521Z,72.70
2017-05-30T19:54:56.968Z,72.30
2017-05-30T19:57:26.010Z,72.00
2017-05-30T19:59:55.014Z,71.60
2017-05-30T20:02:24.035Z,71.70
2017-05-30T20:04:53.023Z,71.10
2017-05-30T20:07:22.018Z,71.00
2017-05-30T20:09:51.212Z,70.80
2017-05-30T20:12:20.746Z,70.60
2017-05-30T20:14:49.740Z,70.80
2017-05-30T20:17:18.915Z,70.10
2017-05-30T20:19:47.946Z,70.30
2017-05-30T20:22:16.761Z,71.00
2017-05-30T20:24:45.980Z,69.50
2017-05-30T20:27:14.980Z,69.30
2017-05-30T20:29:43.987Z,70.00
2017-05-30T20:32:13.210Z,68.70
2017-05-30T20:34:42.193Z,69.00
2017-05-30T20:37:11.358Z,69.30
2017-05-30T20:39:40.494Z,69.80
2017-05-30T20:42:09.482Z,70.60
2017-05-30T20:44:38.462Z,69.80
2017-05-30T20:47:07.641Z,70.00
2017-05-30T20:49:36.621Z,70.30
2017-05-30T20:52:05.597Z,70.60
2017-05-30T20:54:34.632Z,69.90
2017-05-30T20:57:03.634Z,70.20
2017-05-30T20:59:32.626Z,70.50
2017-05-30T21:02:01.733Z,71.80
2017-05-30T21:04:30.721Z,70.60
2017-05-30T21:06:59.711Z,70.90
2017-05-30T21:09:28.979Z,71.10
2017-05-30T21:11:57.989Z,71.20
2017-05-30T21:14:26.991Z,71.40
2017-05-30T21:16:56.187Z,71.50
2017-05-30T21:19:25.189Z,70.90
2017-05-30T21:21:54.186Z,70.70
2017-05-30T21:24:23.221Z,69.60
2017-05-30T21:26:52.210Z,70.70
2017-05-30T21:29:21.207Z,71.20
2017-05-30T21:31:50.544Z,70.90
2017-05-30T21:34:19.541Z,70.70
2017-05-30T21:36:48.546Z,71.10
2017-05-30T21:39:17.632Z,70.90
2017-05-30T21:41:46.615Z,71.10
2017-05-30T21:44:15.589Z,71.10
2017-05-30T21:46:44.766Z,71.30
2017-05-30T21:49:13.746Z,70.90
2017-05-30T21:51:42.736Z,71.00
2017-05-30T21:54:11.971Z,70.80
2017-05-30T21:56:40.992Z,70.60
2017-05-30T21:59:09.981Z,70.90
2017-05-30T22:01:39.001Z,71.70
2017-05-30T22:04:07.996Z,71.20
2017-05-30T22:06:36.975Z,71.60
2017-05-30T22:09:06.034Z,70.50
2017-05-30T22:11:35.017Z,71.50
2017-05-30T22:14:04.018Z,71.10
2017-05-30T22:16:33.202Z,71.30
2017-05-30T22:19:02.186Z,71.30
2017-05-30T22:21:31.166Z,71.60
2017-05-30T22:24:00.402Z,71.20
2017-05-30T22:26:29.382Z,71.00
2017-05-30T22:28:58.378Z,71.60
2017-05-30T22:31:27.764Z,72.00
2017-05-30T22:33:56.745Z,72.30
2017-05-30T22:36:25.747Z,72.50
2017-05-30T22:38:54.845Z,72.10
2017-05-30T22:41:23.826Z,72.30
2017-05-30T22:43:52.824Z,72.40
2017-05-30T22:46:21.836Z,73.20
2017-05-30T22:48:50.831Z,73.40
2017-05-30T22:51:19.807Z,73.20
2017-05-30T22:53:49.501Z,73.10
2017-05-30T22:56:18.459Z,74.00
2017-05-30T22:58:47.444Z,75.00
2017-05-30T23:01:16.697Z,75.60
2017-05-30T23:03:45.684Z,75.80
2017-05-30T23:06:14.661Z,76.80
2017-05-30T23:08:43.676Z,77.00
2017-05-30T23:11:12.670Z,77.10
2017-05-30T23:13:41.667Z,77.20
2017-05-30T23:16:11.741Z,78.30
2017-05-30T23:18:40.741Z,78.30
2017-05-30T23:21:09.765Z,78.50
2017-05-30T23:23:38.949Z,79.10
2017-05-30T23:26:07.941Z,78.20
2017-05-30T23:28:36.930Z,78.00
2017-05-30T23:31:06.026Z,79.10
2017-05-30T23:33:35.007Z,77.80
2017-05-30T23:36:04.018Z,78.60
2017-05-30T23:38:33.430Z,79.10
2017-05-30T23:41:02.418Z,78.60
2017-05-30T23:43:31.394Z,78.00
2017-05-30T23:46:00.405Z,77.50
2017-05-30T23:48:29.995Z,78.10
2017-05-30T23:51:00.038Z,78.10
2017-05-30T23:53:29.075Z,78.90
2017-05-30T23:55:58.080Z,79.30
2017-05-30T23:58:27.131Z,79.50
